Brocket, Canada
Current Conditions -  °F | °C
As of 3:00 AM on Thursday 29 Jan 2015 (Local Time) from CZPC Reporting Station
Clear Clear  
Wind Chill: 22°   Ceiling: Unl
Heat Index: 34°   Visibility: 9mi
Dew Point: 25°   Wind: 20mph
Humidity: 70%   Direction: 280°W
Pressure: 30.29"   Gusts: 26mph
Location:  49.55°N, 113.75°W
Report Text: CZPC 291000Z AUTO 28017G23KT 9SM CLR 01/M04 A3029 RMK SLP290
Loading
Personal Weather Stations






























Interactive Weather Map New forecast layout! Learn more

10-Day Weather Forecast

Advertisements
Track Severe Weather on mobile